Time;durP1;ratioP1;P1;durP2;ratioP2;P2;SDS_P1;SDS_P2;PMS_P1;PMS_P2;Temp;Humidity;BMP_temperature;BMP_pressure;BME280_temperature;BME280_humidity;BME280_pressure;Samples;Min_cycle;Max_cycle;Signal;HPM_P1;HPM_P2
2022/07/01 00:00:12;;;;;;;15.43;13.80;;;22.00;99.90;;;;;;5058263;28;20588;-78
2022/07/01 00:02:39;;;;;;;14.50;13.10;;;22.10;99.90;;;;;;5059417;28;20811;-78
2022/07/01 00:05:08;;;;;;;14.50;13.17;;;22.00;99.90;;;;;;5058074;28;20473;-77
2022/07/01 00:07:35;;;;;;;14.80;13.50;;;21.90;99.90;;;;;;5059769;28;20450;-78
2022/07/01 00:10:01;;;;;;;13.90;12.60;;;21.90;99.90;;;;;;5055586;28;20446;-77
2022/07/01 00:12:28;;;;;;;14.50;13.00;;;21.90;99.90;;;;;;5054661;28;20552;-77
2022/07/01 00:14:55;;;;;;;14.93;13.50;;;21.80;99.90;;;;;;5054739;28;20451;-77
2022/07/01 00:17:22;;;;;;;15.20;13.80;;;21.80;99.90;;;;;;5054487;28;20820;-77
2022/07/01 00:19:50;;;;;;;14.53;13.13;;;21.70;99.90;;;;;;5055517;28;20826;-77
2022/07/01 00:22:18;;;;;;;14.70;13.30;;;21.70;99.90;;;;;;5054839;28;20957;-77
2022/07/01 00:24:46;;;;;;;15.20;13.70;;;21.60;99.90;;;;;;5056865;28;20434;-77
2022/07/01 00:27:13;;;;;;;16.93;15.33;;;21.70;99.90;;;;;;5057637;28;20526;-77
2022/07/01 00:29:40;;;;;;;15.90;14.30;;;21.60;99.90;;;;;;5060324;28;20472;-76
2022/07/01 00:32:08;;;;;;;16.50;14.90;;;21.60;99.90;;;;;;5064662;28;20469;-75
2022/07/01 00:34:34;;;;;;;15.27;13.77;;;21.60;99.90;;;;;;5064594;28;20446;-77
2022/07/01 00:37:01;;;;;;;15.63;14.13;;;21.60;99.90;;;;;;5064998;28;20461;-77
2022/07/01 00:39:31;;;;;;;15.60;14.10;;;21.60;99.90;;;;;;5064264;28;20504;-77
2022/07/01 00:42:00;;;;;;;15.40;14.00;;;21.50;99.90;;;;;;5063563;28;20501;-77
2022/07/01 00:44:28;;;;;;;16.93;15.43;;;21.50;99.90;;;;;;5064186;28;20442;-77
2022/07/01 00:46:55;;;;;;;16.30;14.70;;;21.50;99.90;;;;;;5063492;28;20449;-77
2022/07/01 00:49:22;;;;;;;17.27;15.67;;;21.50;99.90;;;;;;5062655;28;20445;-77
2022/07/01 00:51:50;;;;;;;15.13;13.73;;;21.50;99.90;;;;;;5061247;28;20454;-77
2022/07/01 00:54:16;;;;;;;17.20;15.40;;;21.50;99.90;;;;;;5060154;28;20458;-77
2022/07/01 00:56:44;;;;;;;16.40;14.90;;;21.50;99.90;;;;;;5058742;28;20453;-79
2022/07/01 00:59:11;;;;;;;17.93;15.20;;;21.50;99.90;;;;;;5058211;28;20826;-78
2022/07/01 01:01:38;;;;;;;17.77;15.47;;;21.50;99.90;;;;;;5057539;28;20501;-78
2022/07/01 01:04:05;;;;;;;16.90;15.40;;;21.50;99.90;;;;;;5057861;28;20445;-78
2022/07/01 01:06:32;;;;;;;17.33;15.70;;;21.40;99.90;;;;;;5057685;28;20448;-78
2022/07/01 01:08:58;;;;;;;20.67;18.67;;;21.40;99.90;;;;;;5058183;28;20450;-78
2022/07/01 01:11:26;;;;;;;16.77;15.20;;;21.30;99.90;;;;;;5058685;28;20476;-77
2022/07/01 01:13:54;;;;;;;18.07;16.27;;;21.30;99.90;;;;;;5056916;28;20456;-77
2022/07/01 01:16:22;;;;;;;17.90;15.90;;;21.30;99.90;;;;;;5057227;28;20449;-78
2022/07/01 01:18:49;;;;;;;19.07;17.17;;;21.30;99.90;;;;;;5062458;28;20483;-77
2022/07/01 01:21:18;;;;;;;17.73;16.13;;;21.20;99.90;;;;;;5064598;28;20469;-77
2022/07/01 01:23:45;;;;;;;19.20;17.27;;;21.20;99.90;;;;;;5064770;28;20598;-77
2022/07/01 01:26:23;;;;;;;17.90;16.17;;;21.10;99.90;;;;;;5062311;28;20885;-78
2022/07/01 01:28:51;;;;;;;19.00;17.20;;;21.10;99.90;;;;;;5057647;28;20487;-78
2022/07/01 01:31:18;;;;;;;19.03;17.13;;;21.10;99.90;;;;;;5057074;28;20470;-78
2022/07/01 01:33:45;;;;;;;19.40;17.57;;;21.10;99.90;;;;;;5056491;28;20452;-77
2022/07/01 01:36:12;;;;;;;18.27;16.47;;;21.10;99.90;;;;;;5056750;28;20449;-78
2022/07/01 01:38:40;;;;;;;20.60;18.70;;;21.10;99.90;;;;;;5056033;28;20500;-78
2022/07/01 01:41:09;;;;;;;19.60;17.73;;;21.10;99.90;;;;;;5053608;28;20461;-77
2022/07/01 01:43:35;;;;;;;20.13;18.13;;;21.10;99.90;;;;;;5053331;28;20453;-77
2022/07/01 01:46:02;;;;;;;20.70;18.80;;;21.10;99.90;;;;;;5053205;28;20441;-77
2022/07/01 01:48:29;;;;;;;21.57;18.80;;;21.00;99.90;;;;;;5053255;28;20456;-77
2022/07/01 01:50:56;;;;;;;21.80;19.50;;;21.00;99.90;;;;;;5054254;28;20603;-77
2022/07/01 01:53:23;;;;;;;20.73;18.57;;;21.00;99.90;;;;;;5052925;28;20929;-77
2022/07/01 01:55:52;;;;;;;21.57;19.37;;;21.00;99.90;;;;;;5052980;28;20453;-77
2022/07/01 01:58:19;;;;;;;21.43;19.17;;;21.00;99.90;;;;;;5053393;28;20445;-77
2022/07/01 02:00:45;;;;;;;20.60;18.50;;;21.00;99.90;;;;;;5052817;28;20473;-77
2022/07/01 02:03:12;;;;;;;20.57;18.40;;;21.00;99.90;;;;;;5056383;28;20445;-78
2022/07/01 02:05:39;;;;;;;23.63;19.77;;;21.00;99.90;;;;;;5056755;28;20449;-77
2022/07/01 02:08:06;;;;;;;22.13;19.83;;;21.00;99.90;;;;;;5056702;28;20819;-77
2022/07/01 02:10:32;;;;;;;22.10;19.67;;;21.00;99.90;;;;;;5056852;28;20464;-76
2022/07/01 02:13:01;;;;;;;22.13;19.93;;;21.00;99.90;;;;;;5056822;28;20480;-77
2022/07/01 02:15:27;;;;;;;22.87;20.67;;;21.00;99.90;;;;;;5056578;28;20450;-78
2022/07/01 02:17:56;;;;;;;22.87;20.47;;;20.90;99.90;;;;;;5056399;28;20469;-77
2022/07/01 02:20:23;;;;;;;23.83;21.43;;;20.90;99.90;;;;;;5071887;22;20845;31
2022/07/01 02:22:51;;;;;;;21.40;19.30;;;20.90;99.90;;;;;;5054056;28;20462;-74
2022/07/01 02:25:18;;;;;;;24.57;21.97;;;20.90;99.90;;;;;;5054951;28;20794;-73
2022/07/01 02:27:45;;;;;;;22.13;19.83;;;20.80;99.90;;;;;;5054950;28;20916;-74
2022/07/01 02:30:13;;;;;;;24.07;21.57;;;20.80;99.90;;;;;;5055264;28;20438;-74
2022/07/01 02:32:40;;;;;;;23.43;21.07;;;20.80;99.90;;;;;;5034833;28;20956;-74
2022/07/01 02:35:07;;;;;;;22.67;20.37;;;20.80;99.90;;;;;;5035172;28;20450;-74
2022/07/01 02:37:34;;;;;;;23.23;20.83;;;20.80;99.90;;;;;;5035269;28;20447;-74
2022/07/01 02:40:01;;;;;;;23.73;21.33;;;20.80;99.90;;;;;;5035013;28;20555;-74
2022/07/01 02:42:27;;;;;;;23.30;21.00;;;20.80;99.90;;;;;;5034890;28;20471;-74
2022/07/01 02:44:55;;;;;;;23.73;21.07;;;20.70;99.90;;;;;;5034698;28;20451;-74
2022/07/01 02:47:23;;;;;;;23.80;21.37;;;20.80;99.90;;;;;;5034648;28;20942;-74
2022/07/01 02:49:51;;;;;;;24.13;21.73;;;20.70;99.90;;;;;;5035007;28;20442;-74
2022/07/01 02:52:18;;;;;;;24.77;22.20;;;20.70;99.90;;;;;;5034743;28;20471;-74
2022/07/01 02:54:45;;;;;;;24.93;21.30;;;20.70;99.90;;;;;;5034832;28;20863;-74
2022/07/01 02:57:11;;;;;;;24.40;21.80;;;20.70;99.90;;;;;;5034733;28;20458;-74
2022/07/01 02:59:38;;;;;;;24.70;22.10;;;20.70;99.90;;;;;;5034505;28;20478;-74
2022/07/01 03:02:05;;;;;;;27.43;22.23;;;20.70;99.90;;;;;;5034743;28;20473;-74
2022/07/01 03:04:33;;;;;;;24.37;21.97;;;20.70;99.90;;;;;;5034535;28;20492;-74
2022/07/01 03:07:00;;;;;;;25.10;22.60;;;20.70;99.90;;;;;;5034658;28;20455;-74
2022/07/01 03:09:27;;;;;;;25.17;22.47;;;20.70;99.90;;;;;;5034593;28;20533;-74
2022/07/01 03:11:54;;;;;;;23.57;21.27;;;20.70;99.90;;;;;;5034477;28;20466;-74
2022/07/01 03:14:21;;;;;;;25.73;23.00;;;20.70;99.90;;;;;;5033493;28;20447;-74
2022/07/01 03:16:48;;;;;;;24.57;22.13;;;20.70;99.90;;;;;;5034085;28;20447;-74
2022/07/01 03:19:14;;;;;;;23.50;21.07;;;20.70;99.90;;;;;;5034236;28;20489;-73
2022/07/01 03:21:43;;;;;;;26.70;24.00;;;20.70;99.90;;;;;;5033855;28;20985;-74
2022/07/01 03:24:09;;;;;;;25.90;23.10;;;20.70;99.90;;;;;;5034123;28;20458;-74
2022/07/01 03:26:36;;;;;;;26.70;24.10;;;20.70;99.90;;;;;;5033779;28;20466;-74
2022/07/01 03:29:03;;;;;;;27.47;24.23;;;20.80;99.90;;;;;;5033975;28;20450;-74
2022/07/01 03:31:31;;;;;;;27.47;24.57;;;20.80;99.90;;;;;;5033700;28;20466;-74
2022/07/01 03:33:57;;;;;;;28.23;23.90;;;20.80;99.90;;;;;;5034158;28;20454;-74
2022/07/01 03:36:24;;;;;;;25.20;22.70;;;20.80;99.90;;;;;;5034136;28;20447;-74
2022/07/01 03:38:52;;;;;;;27.83;25.00;;;20.80;99.90;;;;;;5033800;28;20826;-73
2022/07/01 03:41:19;;;;;;;38.23;34.47;;;20.80;99.90;;;;;;5033633;28;20467;-73
2022/07/01 03:43:46;;;;;;;26.93;24.33;;;20.90;99.90;;;;;;5033628;28;20446;-74
2022/07/01 03:46:12;;;;;;;25.77;23.07;;;20.90;99.90;;;;;;5033772;28;20481;-74
2022/07/01 03:48:39;;;;;;;27.93;24.93;;;20.90;99.90;;;;;;5033876;28;20799;-73
2022/07/01 03:51:06;;;;;;;27.87;23.93;;;20.90;99.90;;;;;;5033981;28;20496;-75
2022/07/01 03:56:18;;;;;;;25.83;22.93;;;20.90;99.90;;;;;;5033915;28;20450;-74
2022/07/01 03:58:45;;;;;;;27.00;24.07;;;20.80;99.90;;;;;;5033717;28;20454;-73
2022/07/01 04:01:11;;;;;;;26.83;24.00;;;20.80;99.90;;;;;;5033041;28;20486;-74
2022/07/01 04:03:38;;;;;;;28.97;25.87;;;20.80;99.90;;;;;;5033389;28;20823;-73
2022/07/01 04:06:05;;;;;;;29.90;26.00;;;20.80;99.90;;;;;;5033333;28;20447;-73
2022/07/01 04:08:32;;;;;;;31.53;26.97;;;20.90;99.90;;;;;;5033236;28;20504;-73
2022/07/01 04:10:59;;;;;;;27.93;23.67;;;20.90;99.90;;;;;;5033568;28;20528;-73
2022/07/01 04:13:28;;;;;;;31.77;26.20;;;21.00;99.90;;;;;;5033139;28;20473;-74
2022/07/01 04:15:55;;;;;;;29.90;24.57;;;21.00;99.90;;;;;;5033262;28;20451;-73
2022/07/01 04:18:21;;;;;;;29.83;26.70;;;21.00;99.90;;;;;;5033284;28;20457;-74
2022/07/01 04:22:32;;;;;;;26.93;24.10;;;20.90;99.90;;;;;;5032921;28;20566;-73
2022/07/01 04:23:34;;;;;;;30.40;25.93;;;21.00;99.90;;;;;;5033114;28;20518;-73
2022/07/01 04:26:01;;;;;;;32.40;26.13;;;21.00;99.90;;;;;;5033947;28;20858;-73
2022/07/01 04:28:29;;;;;;;32.67;25.17;;;21.00;99.90;;;;;;5033926;28;20200;-73
2022/07/01 04:30:56;;;;;;;29.23;24.20;;;21.10;99.90;;;;;;5033813;28;20527;-74
2022/07/01 04:33:23;;;;;;;27.63;24.63;;;21.10;99.90;;;;;;5033810;28;20473;-74
2022/07/01 04:35:50;;;;;;;30.57;26.10;;;21.20;99.90;;;;;;5033192;28;20457;-74
2022/07/01 04:38:16;;;;;;;28.00;25.07;;;21.30;99.90;;;;;;5032958;28;20512;-74
2022/07/01 04:41:58;;;;;;;29.43;25.67;;;21.30;99.90;;;;;;5032917;28;20921;-74
2022/07/01 04:43:31;;;;;;;27.50;23.50;;;21.40;99.90;;;;;;5032723;28;20534;-74
2022/07/01 04:45:58;;;;;;;27.90;24.90;;;21.40;99.90;;;;;;5032838;28;20458;-74
2022/07/01 04:48:24;;;;;;;32.93;27.30;;;21.50;99.90;;;;;;5032945;28;20516;-74
2022/07/01 04:50:51;;;;;;;28.73;25.60;;;21.50;99.90;;;;;;5032726;28;20473;-73
2022/07/01 04:53:18;;;;;;;28.90;23.67;;;21.60;99.90;;;;;;5032916;28;20446;-74
2022/07/01 04:55:45;;;;;;;25.97;23.30;;;21.60;99.90;;;;;;5032883;28;20446;-74
2022/07/01 04:58:13;;;;;;;30.87;27.37;;;21.70;99.90;;;;;;5032688;28;20451;-74
2022/07/01 05:00:41;;;;;;;28.50;25.03;;;21.80;99.90;;;;;;5032511;28;20486;-73
2022/07/01 05:03:07;;;;;;;29.33;24.70;;;21.90;99.90;;;;;;5032733;28;20454;-74
2022/07/01 05:05:34;;;;;;;26.77;23.87;;;22.00;99.90;;;;;;5032586;28;20460;-73
2022/07/01 05:08:01;;;;;;;27.53;24.53;;;22.10;99.90;;;;;;5032616;28;20446;-74
2022/07/01 05:10:29;;;;;;;33.13;25.53;;;22.20;99.90;;;;;;5032339;28;20956;-74
2022/07/01 05:12:56;;;;;;;28.53;25.50;;;22.20;99.90;;;;;;5032669;28;20481;-74
2022/07/01 05:15:23;;;;;;;27.80;24.87;;;22.30;99.90;;;;;;5032620;28;21015;-74
2022/07/01 05:23:19;;;;;;;26.20;23.60;;;22.60;99.90;;;;;;5032756;28;20406;-74
2022/07/01 05:25:45;;;;;;;28.70;25.63;;;22.60;99.90;;;;;;5032884;28;20809;-74
2022/07/01 05:28:12;;;;;;;29.13;26.13;;;22.70;99.90;;;;;;5032450;28;20447;-74
2022/07/01 05:30:39;;;;;;;27.33;23.67;;;22.80;99.90;;;;;;5032175;28;20993;-74
2022/07/01 05:33:07;;;;;;;24.30;21.73;;;22.90;99.90;;;;;;5032605;28;20453;-74
2022/07/01 05:35:34;;;;;;;25.07;22.47;;;23.00;99.90;;;;;;5032158;28;20446;-74
2022/07/01 05:38:01;;;;;;;23.73;21.10;;;23.10;99.90;;;;;;5036174;28;20855;-74
2022/07/01 05:40:27;;;;;;;25.20;22.60;;;23.50;99.90;;;;;;5035700;28;20478;-74
2022/07/01 05:42:54;;;;;;;23.30;21.00;;;23.50;99.90;;;;;;5035962;28;20485;-74
2022/07/01 05:45:21;;;;;;;23.13;20.83;;;23.70;99.90;;;;;;5036255;28;20501;-74
2022/07/01 05:47:48;;;;;;;24.30;21.90;;;23.90;99.90;;;;;;5036067;28;20810;-74
2022/07/01 05:50:16;;;;;;;22.13;19.93;;;24.00;99.90;;;;;;5035871;28;20489;-74
2022/07/01 05:52:43;;;;;;;22.67;20.27;;;24.00;99.90;;;;;;5036149;28;20454;-74
2022/07/01 05:55:11;;;;;;;24.00;21.70;;;24.10;99.90;;;;;;5035776;28;20453;-74
2022/07/01 05:57:38;;;;;;;25.37;22.60;;;24.10;99.90;;;;;;5035887;28;20885;-74
2022/07/01 06:00:06;;;;;;;23.57;21.13;;;24.20;99.90;;;;;;5036256;28;20900;-75
2022/07/01 06:02:33;;;;;;;27.53;21.60;;;24.20;99.90;;;;;;5036392;28;20825;-74
2022/07/01 06:05:00;;;;;;;22.70;20.40;;;24.10;99.90;;;;;;5035797;28;20450;-74
2022/07/01 06:07:28;;;;;;;23.37;21.00;;;24.10;99.90;;;;;;5035643;28;20933;-75
2022/07/01 06:09:55;;;;;;;22.97;20.63;;;24.10;99.90;;;;;;5035849;28;20450;-74
2022/07/01 06:12:22;;;;;;;26.43;23.73;;;24.00;99.90;;;;;;5035490;28;20470;-74
2022/07/01 06:14:49;;;;;;;26.03;23.33;;;24.10;99.90;;;;;;5035302;28;20967;-74
2022/07/01 06:17:16;;;;;;;27.07;24.47;;;24.10;99.90;;;;;;5035604;28;20450;-74
2022/07/01 06:19:43;;;;;;;27.17;24.23;;;24.20;99.90;;;;;;5035505;28;20541;-74
2022/07/01 06:22:10;;;;;;;27.20;22.97;;;24.20;99.90;;;;;;5035207;28;20502;-74
2022/07/01 06:24:38;;;;;;;33.63;29.93;;;24.40;99.90;;;;;;5035580;28;20447;-74
2022/07/01 06:27:05;;;;;;;30.47;27.17;;;24.50;99.90;;;;;;5035815;28;20496;-74
2022/07/01 06:29:32;;;;;;;26.50;23.70;;;24.60;99.90;;;;;;5035457;28;20453;-74
2022/07/01 06:31:59;;;;;;;25.97;23.37;;;24.60;99.90;;;;;;5035264;28;20985;-74
2022/07/01 06:34:25;;;;;;;27.30;24.50;;;24.60;99.90;;;;;;5035458;28;20488;-74
2022/07/01 06:36:52;;;;;;;27.53;23.60;;;24.60;99.90;;;;;;5035618;28;20453;-74
2022/07/01 06:39:19;;;;;;;25.40;22.90;;;24.60;99.90;;;;;;5035853;28;20812;-74
2022/07/01 06:41:47;;;;;;;24.77;22.27;;;24.50;99.90;;;;;;5035976;28;20501;-74
2022/07/01 06:44:14;;;;;;;26.97;24.10;;;24.50;99.90;;;;;;5035319;28;20969;-74
2022/07/01 06:46:40;;;;;;;24.33;21.80;;;24.40;99.90;;;;;;5034926;28;20494;-75
2022/07/01 06:49:07;;;;;;;25.00;22.37;;;24.50;99.90;;;;;;5035589;28;20450;-73
2022/07/01 06:51:34;;;;;;;25.60;22.93;;;24.50;99.90;;;;;;5034915;28;20595;-73
2022/07/01 06:54:01;;;;;;;24.90;22.20;;;24.50;99.90;;;;;;5035042;28;20459;-74
2022/07/01 06:56:27;;;;;;;23.87;21.57;;;24.50;99.90;;;;;;5034553;28;20451;-74
2022/07/01 06:58:55;;;;;;;24.53;21.90;;;24.40;99.90;;;;;;5034839;28;20450;-74
2022/07/01 07:01:22;;;;;;;26.10;22.50;;;24.50;99.90;;;;;;5035111;28;20490;-75
2022/07/01 07:03:49;;;;;;;25.77;23.00;;;24.50;99.90;;;;;;5035359;28;20803;-74
2022/07/01 07:06:16;;;;;;;23.37;21.07;;;24.50;99.90;;;;;;5034609;28;20533;-74
2022/07/01 07:08:43;;;;;;;26.10;23.60;;;24.50;99.90;;;;;;5035126;28;20453;-75
2022/07/01 07:11:09;;;;;;;24.13;20.97;;;24.60;99.90;;;;;;5034762;28;20466;-75
2022/07/01 07:13:36;;;;;;;22.73;20.47;;;24.50;99.90;;;;;;5034571;28;20822;-75
2022/07/01 07:16:05;;;;;;;23.80;21.40;;;24.70;99.90;;;;;;5034737;28;20458;-74
2022/07/01 07:18:32;;;;;;;24.77;22.10;;;24.80;99.90;;;;;;5034509;28;20454;-74
2022/07/01 07:20:59;;;;;;;25.03;22.20;;;24.80;99.90;;;;;;5034085;28;20486;-75
2022/07/01 07:23:25;;;;;;;27.47;22.83;;;24.70;99.90;;;;;;5034080;28;20458;-75
2022/07/01 07:25:52;;;;;;;23.00;20.63;;;24.70;99.90;;;;;;5034951;28;20493;-74
2022/07/01 07:28:19;;;;;;;24.57;22.17;;;24.60;99.90;;;;;;5034205;28;20449;-75
2022/07/01 07:30:45;;;;;;;24.33;21.87;;;24.60;99.90;;;;;;5034302;28;20872;-75
2022/07/01 07:33:13;;;;;;;22.40;20.17;;;24.60;99.90;;;;;;5034081;28;20447;-75
2022/07/01 07:35:40;;;;;;;24.77;22.07;;;24.60;99.90;;;;;;5033639;28;20917;-74
2022/07/01 07:38:08;;;;;;;23.47;21.07;;;24.50;99.90;;;;;;5034256;28;20449;-74
2022/07/01 07:40:35;;;;;;;22.23;19.97;;;24.50;99.90;;;;;;5033597;28;20492;-74
2022/07/01 07:43:03;;;;;;;19.57;17.67;;;24.60;99.90;;;;;;5034309;28;20451;-75
2022/07/01 07:45:30;;;;;;;17.73;16.20;;;24.70;99.90;;;;;;5033592;28;20560;-75
2022/07/01 07:47:57;;;;;;;18.93;17.17;;;24.80;99.90;;;;;;5033343;28;20461;-75
2022/07/01 07:50:25;;;;;;;19.43;16.27;;;24.80;99.90;;;;;;5033717;28;20450;-74
2022/07/01 07:52:51;;;;;;;17.03;15.33;;;24.90;99.90;;;;;;5034277;28;20454;-74
2022/07/01 07:55:18;;;;;;;17.07;15.33;;;24.80;99.90;;;;;;5034487;28;20791;-74
2022/07/01 07:57:45;;;;;;;16.43;14.93;;;24.80;99.90;;;;;;5034237;28;20457;-74
2022/07/01 08:00:13;;;;;;;14.27;12.80;;;24.90;99.90;;;;;;5033516;28;20814;-74
2022/07/01 08:02:42;;;;;;;13.70;12.40;;;24.80;99.90;;;;;;5033702;28;20453;-74
2022/07/01 08:05:10;;;;;;;13.80;12.50;;;25.00;99.90;;;;;;5034065;28;20451;-74
2022/07/01 08:07:39;;;;;;;15.03;12.93;;;25.00;99.90;;;;;;5033581;28;20447;-74
2022/07/01 08:10:08;;;;;;;13.00;11.80;;;24.90;99.90;;;;;;5033567;28;20466;-74
2022/07/01 08:12:35;;;;;;;13.63;12.40;;;24.90;99.90;;;;;;5033491;28;20469;-75
2022/07/01 08:15:02;;;;;;;13.50;12.23;;;25.00;99.90;;;;;;5033448;28;20961;-74
2022/07/01 08:17:29;;;;;;;14.50;13.10;;;25.10;99.90;;;;;;5033365;28;20557;-75
2022/07/01 08:19:56;;;;;;;16.63;15.03;;;25.20;99.90;;;;;;5033143;28;20446;-74
2022/07/01 08:22:23;;;;;;;15.40;13.90;;;25.20;99.90;;;;;;5071318;22;20505;-76
2022/07/01 08:24:51;;;;;;;16.03;14.37;;;25.30;99.90;;;;;;5053276;28;20473;-75
2022/07/01 08:27:18;;;;;;;16.60;13.70;;;25.30;99.90;;;;;;5053185;28;20449;-75
2022/07/01 08:29:44;;;;;;;16.00;14.50;;;25.30;99.90;;;;;;5053437;28;20453;-75
2022/07/01 08:32:11;;;;;;;16.00;14.43;;;25.20;99.90;;;;;;5053176;28;20462;-75
2022/07/01 08:34:38;;;;;;;16.30;14.70;;;25.30;99.90;;;;;;5053340;28;20445;-75
2022/07/01 08:37:05;;;;;;;15.07;13.77;;;25.30;99.90;;;;;;5053278;28;20454;-75
2022/07/01 08:39:32;;;;;;;15.40;13.80;;;25.30;99.90;;;;;;5053236;28;20449;-75
2022/07/01 08:42:00;;;;;;;14.93;13.63;;;25.30;99.90;;;;;;5052992;28;20491;-75
2022/07/01 08:44:27;;;;;;;16.20;14.70;;;25.30;99.90;;;;;;5052998;28;20469;-75
2022/07/01 08:46:54;;;;;;;14.80;13.50;;;25.40;99.90;;;;;;5053190;28;20450;-76
2022/07/01 08:49:22;;;;;;;15.23;13.73;;;25.40;99.90;;;;;;5053110;28;20542;-75
2022/07/01 08:51:49;;;;;;;15.20;13.80;;;25.30;99.90;;;;;;5053065;28;20472;-75
2022/07/01 08:54:16;;;;;;;14.37;13.07;;;25.20;99.90;;;;;;5053067;28;20825;-75
2022/07/01 08:56:44;;;;;;;16.07;14.47;;;25.40;99.90;;;;;;5053068;28;20457;-75
2022/07/01 08:59:14;;;;;;;14.93;13.63;;;25.40;99.90;;;;;;5052752;28;20897;-76
2022/07/01 09:01:41;;;;;;;15.40;14.07;;;25.60;99.90;;;;;;5052879;28;20509;-76
2022/07/01 09:04:15;;;;;;;16.87;15.20;;;25.70;99.90;;;;;;5052643;28;20446;-76
2022/07/01 09:06:42;;;;;;;16.33;14.67;;;25.80;99.90;;;;;;5052198;28;20429;-75
2022/07/01 09:09:13;;;;;;;16.97;15.20;;;25.90;99.90;;;;;;5052237;28;20453;-75
2022/07/01 09:11:46;;;;;;;15.43;14.13;;;26.10;99.90;;;;;;5054166;28;20469;-75
2022/07/01 09:14:15;;;;;;;15.83;14.23;;;26.10;99.90;;;;;;5056539;28;20548;-75
2022/07/01 09:16:43;;;;;;;16.70;14.50;;;26.10;99.90;;;;;;5056305;28;20457;-76
2022/07/01 09:19:10;;;;;;;15.87;14.57;;;26.10;99.90;;;;;;5056223;28;20445;-75
2022/07/01 09:21:36;;;;;;;16.30;14.83;;;26.00;99.90;;;;;;5056323;28;20496;-75
2022/07/01 09:24:05;;;;;;;16.77;15.37;;;26.00;99.90;;;;;;5056212;28;20445;-76
2022/07/01 09:26:32;;;;;;;13.10;11.90;;;25.90;99.90;;;;;;5056553;28;20877;-75
2022/07/01 09:29:00;;;;;;;10.77;7.17;;;25.80;99.90;;;;;;5056098;28;20456;-75
2022/07/01 09:31:35;;;;;;;8.97;5.20;;;25.40;99.90;;;;;;5056265;28;20469;-75
2022/07/01 09:34:06;;;;;;;8.63;4.80;;;24.80;99.90;;;;;;5056382;28;20461;-75
2022/07/01 09:36:33;;;;;;;6.57;4.20;;;24.40;99.90;;;;;;5056284;28;20445;-75
2022/07/01 09:39:04;;;;;;;6.03;4.47;;;24.10;99.90;;;;;;5056054;28;20952;-75
2022/07/01 09:41:36;;;;;;;3.17;2.87;;;23.60;99.90;;;;;;5056078;28;20904;-75
2022/07/01 09:44:08;;;;;;;3.63;3.30;;;23.20;99.90;;;;;;5056125;28;20426;-75
2022/07/01 09:46:36;;;;;;;3.10;2.90;;;22.80;99.90;;;;;;5056174;28;20437;-75
2022/07/01 09:49:04;;;;;;;2.97;2.70;;;22.60;99.90;;;;;;5056031;28;20454;-75
2022/07/01 09:51:31;;;;;;;5.77;2.73;;;22.30;99.90;;;;;;5055726;28;20984;-75
2022/07/01 09:53:58;;;;;;;3.07;2.67;;;22.20;99.90;;;;;;5056121;28;20450;-75
2022/07/01 09:56:25;;;;;;;2.50;2.30;;;21.90;99.90;;;;;;5056071;28;20456;-75
2022/07/01 09:58:51;;;;;;;3.10;2.87;;;21.90;99.90;;;;;;5055950;28;20453;-75
2022/07/01 10:01:19;;;;;;;4.93;2.70;;;21.80;99.90;;;;;;5055851;28;20532;-74
2022/07/01 10:03:47;;;;;;;2.63;2.50;;;21.60;99.90;;;;;;5055694;28;20445;-76
2022/07/01 10:06:43;;;;;;;3.27;2.97;;;21.50;99.90;;;;;;5055710;28;20449;-75
2022/07/01 10:09:26;;;;;;;2.63;2.50;;;21.30;99.90;;;;;;5055529;28;20481;-76
2022/07/01 10:12:08;;;;;;;2.37;2.27;;;21.20;99.90;;;;;;5055559;28;20465;-75
2022/07/01 10:14:39;;;;;;;4.93;2.33;;;21.10;99.90;;;;;;5055375;28;20897;-76
2022/07/01 10:17:07;;;;;;;2.57;2.37;;;21.00;99.90;;;;;;5055567;28;20518;-76
2022/07/01 10:19:35;;;;;;;2.43;2.23;;;20.90;99.90;;;;;;5055694;28;20441;-75
2022/07/01 10:22:26;;;;;;;2.83;2.63;;;20.90;99.90;;;;;;5054445;28;20485;-75
2022/07/01 10:24:52;;;;;;;2.60;2.50;;;20.90;99.90;;;;;;5055398;28;20445;-75
2022/07/01 10:27:24;;;;;;;2.30;2.10;;;21.00;99.90;;;;;;5055294;28;20445;-75
2022/07/01 10:30:13;;;;;;;3.80;2.67;;;21.00;99.90;;;;;;5055614;28;20450;-75
2022/07/01 10:32:47;;;;;;;2.93;2.73;;;20.80;99.90;;;;;;5054978;28;20474;-75
2022/07/01 10:35:15;;;;;;;2.97;2.77;;;20.80;99.90;;;;;;5055039;28;20939;-75
2022/07/01 10:37:57;;;;;;;2.97;2.77;;;20.70;99.90;;;;;;5055353;28;20855;-75
2022/07/01 10:40:41;;;;;;;2.60;2.40;;;20.60;99.90;;;;;;5055228;28;20437;-76
2022/07/01 10:43:07;;;;;;;2.40;2.30;;;20.60;99.90;;;;;;5055146;28;20476;-75
2022/07/01 10:45:43;;;;;;;2.37;2.17;;;20.60;99.90;;;;;;5055132;28;20851;-75
2022/07/01 10:48:20;;;;;;;2.30;2.10;;;20.60;99.90;;;;;;5054988;28;20492;-75
2022/07/01 10:50:49;;;;;;;1.97;1.83;;;20.50;99.90;;;;;;5055533;28;20457;-75
2022/07/01 10:53:15;;;;;;;3.77;1.87;;;20.50;99.90;;;;;;5054845;28;20449;-75
2022/07/01 10:55:46;;;;;;;2.43;1.30;;;20.30;99.90;;;;;;5054836;28;20481;-75
2022/07/01 10:58:13;;;;;;;1.53;1.43;;;20.20;99.90;;;;;;5054910;28;20447;-75
2022/07/01 11:00:43;;;;;;;2.40;1.03;;;20.10;99.90;;;;;;5054461;28;20808;-75
2022/07/01 11:03:20;;;;;;;2.80;1.40;;;20.00;99.90;;;;;;5054940;28;20552;-76
2022/07/01 11:05:51;;;;;;;2.90;2.20;;;19.90;99.90;;;;;;5054537;28;20459;-75
2022/07/01 11:08:18;;;;;;;1.00;0.90;;;20.00;99.90;;;;;;5054146;28;20445;-75
2022/07/01 11:10:45;;;;;;;1.53;1.43;;;19.90;99.90;;;;;;5054614;28;20454;-76
2022/07/01 11:13:15;;;;;;;0.90;0.90;;;20.00;99.90;;;;;;5054671;28;20442;-75
2022/07/01 11:15:45;;;;;;;1.20;1.10;;;20.00;99.90;;;;;;5054363;28;20500;-75
2022/07/01 11:18:12;;;;;;;1.67;1.33;;;19.90;99.90;;;;;;5054364;28;20466;-75
2022/07/01 11:20:38;;;;;;;1.57;1.47;;;19.80;99.90;;;;;;5054105;28;20453;-75
2022/07/01 11:23:06;;;;;;;2.30;1.40;;;19.80;99.90;;;;;;5053544;28;20972;-75
2022/07/01 11:25:33;;;;;;;2.30;2.10;;;19.70;99.90;;;;;;5054262;28;20445;-77
2022/07/01 11:28:00;;;;;;;2.63;1.20;;;19.60;99.90;;;;;;5054009;28;20449;-75
2022/07/01 11:30:27;;;;;;;2.20;1.90;;;19.60;99.90;;;;;;5054199;28;20450;-75
2022/07/01 11:32:56;;;;;;;1.83;1.50;;;19.60;99.90;;;;;;5053938;28;20462;-75
2022/07/01 11:41:04;;;;;;;4.10;2.83;;;18.90;99.90;;;;;;5053855;28;20499;-75
2022/07/01 11:43:32;;;;;;;3.20;2.40;;;19.20;99.90;;;;;;5053496;28;20481;-76
2022/07/01 11:46:02;;;;;;;2.10;2.00;;;18.90;99.90;;;;;;5053698;28;20457;-77
2022/07/01 11:48:33;;;;;;;2.20;1.77;;;18.70;99.90;;;;;;5053845;28;20479;-76
2022/07/01 11:51:00;;;;;;;2.10;1.90;;;18.50;99.90;;;;;;5053847;28;20438;-76
2022/07/01 11:53:29;;;;;;;2.97;1.50;;;18.40;99.90;;;;;;5053483;28;20449;-76
2022/07/01 11:55:56;;;;;;;1.60;1.50;;;18.30;99.90;;;;;;5053560;28;20457;-77
2022/07/01 11:58:22;;;;;;;3.20;2.17;;;18.20;99.90;;;;;;5053360;28;20457;-76
2022/07/01 12:00:49;;;;;;;2.87;1.90;;;18.10;99.90;;;;;;5053303;28;20959;-77
2022/07/01 12:03:30;;;;;;;2.40;2.20;;;18.10;99.90;;;;;;5053362;28;20485;-76
2022/07/01 12:05:57;;;;;;;2.03;1.87;;;18.10;99.90;;;;;;5053474;28;20484;-77
2022/07/01 12:08:25;;;;;;;2.50;2.30;;;18.00;99.90;;;;;;5053357;28;20449;-76
2022/07/01 12:10:53;;;;;;;3.43;2.57;;;18.20;99.90;;;;;;5053186;28;20488;-76
2022/07/01 12:13:23;;;;;;;2.63;2.50;;;18.20;99.90;;;;;;5053585;28;20449;-77
2022/07/01 12:15:50;;;;;;;4.00;3.70;;;18.20;99.90;;;;;;5053436;28;20492;-77
2022/07/01 12:18:17;;;;;;;3.80;3.57;;;18.30;99.90;;;;;;5052871;28;20956;-76
2022/07/01 12:20:50;;;;;;;4.90;4.50;;;18.30;99.90;;;;;;5053126;28;20449;-76
2022/07/01 12:23:17;;;;;;;4.87;4.47;;;18.50;99.90;;;;;;5053534;28;20883;-76
2022/07/01 12:25:48;;;;;;;5.00;4.60;;;18.70;99.90;;;;;;5052958;28;20820;-76
2022/07/01 12:28:30;;;;;;;4.80;4.30;;;18.60;99.90;;;;;;5053612;28;20433;-76
2022/07/01 12:31:06;;;;;;;4.97;4.57;;;18.20;99.90;;;;;;5053290;28;20429;-76
2022/07/01 12:33:33;;;;;;;5.50;4.63;;;18.40;99.90;;;;;;5053095;28;20433;-76
2022/07/01 12:36:03;;;;;;;5.30;4.90;;;18.60;99.90;;;;;;5052960;28;20450;-76
2022/07/01 12:38:30;;;;;;;5.57;5.17;;;18.80;99.90;;;;;;5052821;28;20475;-76
2022/07/01 12:40:56;;;;;;;5.67;5.27;;;18.70;99.90;;;;;;5052683;28;20462;-76
2022/07/01 12:43:35;;;;;;;6.17;5.53;;;18.90;99.90;;;;;;5052532;28;21021;-76
2022/07/01 12:46:02;;;;;;;6.30;5.80;;;18.90;99.90;;;;;;5052672;28;20440;-77
2022/07/01 12:48:30;;;;;;;6.20;5.80;;;18.90;99.90;;;;;;5052571;28;20449;-76
2022/07/01 12:50:58;;;;;;;6.33;5.83;;;18.80;99.90;;;;;;5052578;28;20453;-76